createdAt,value
2023-04-17T00:01:39.392Z,100254.66
2023-04-17T00:04:11.437Z,100250.69
2023-04-17T00:06:40.298Z,100243.84
2023-04-17T00:09:08.183Z,100247.72
2023-04-17T00:11:36.160Z,100251.09
2023-04-17T00:14:05.834Z,100249.25
2023-04-17T00:16:33.945Z,100245.13
2023-04-17T00:19:01.917Z,100246.75
2023-04-17T00:21:32.112Z,100244.88
2023-04-17T00:24:00.157Z,100245.63
2023-04-17T00:26:28.093Z,100245.84
2023-04-17T00:28:56.340Z,100241.16
2023-04-17T00:31:25.755Z,100256.78
2023-04-17T00:33:53.699Z,100252.84
2023-04-17T00:36:21.651Z,100260.81
2023-04-17T00:38:49.566Z,100256.69
2023-04-17T00:41:17.979Z,100253.34
2023-04-17T00:43:45.887Z,100256.56
2023-04-17T00:46:14.250Z,100249.28
2023-04-17T00:48:44.243Z,100255.88
2023-04-17T00:51:12.622Z,100246.19
2023-04-17T00:53:41.026Z,100246.53
2023-04-17T00:56:09.539Z,100253.38
2023-04-17T00:58:39.262Z,100261.09
2023-04-17T01:01:07.880Z,100258.13
2023-04-17T01:03:36.187Z,100256.03
2023-04-17T01:06:05.958Z,100245.50
2023-04-17T01:08:41.322Z,100250.50
2023-04-17T01:11:09.314Z,100251.16
2023-04-17T01:13:45.629Z,100259.69
2023-04-17T01:16:13.618Z,100243.44
2023-04-17T01:18:41.662Z,100237.00
2023-04-17T01:21:11.259Z,100237.84
2023-04-17T01:23:46.056Z,100255.44
2023-04-17T01:26:17.881Z,100254.06
2023-04-17T01:28:50.688Z,100233.81
2023-04-17T01:31:18.686Z,100262.47
2023-04-17T01:33:46.658Z,100253.16
2023-04-17T01:36:14.856Z,100250.78
2023-04-17T01:38:43.072Z,100243.59
2023-04-17T01:41:11.345Z,100252.09
2023-04-17T01:43:42.258Z,100245.41
2023-04-17T01:46:10.635Z,100241.50
2023-04-17T01:48:38.936Z,100237.91
2023-04-17T01:51:07.557Z,100237.19
2023-04-17T01:53:35.642Z,100238.63
2023-04-17T01:56:03.655Z,100236.34
2023-04-17T01:58:32.214Z,100229.25
2023-04-17T02:01:01.577Z,100229.91
2023-04-17T02:03:29.692Z,100240.06
2023-04-17T02:05:57.782Z,100237.78
2023-04-17T02:08:26.098Z,100241.66
2023-04-17T02:10:54.380Z,100241.13
2023-04-17T02:13:22.292Z,100239.97
2023-04-17T02:15:50.220Z,100240.19
2023-04-17T02:18:19.583Z,100244.06
2023-04-17T02:20:47.497Z,100232.94
2023-04-17T02:23:15.445Z,100235.34
2023-04-17T02:25:43.348Z,100235.53
2023-04-17T02:28:11.477Z,100236.13
2023-04-17T02:30:39.411Z,100238.22
2023-04-17T02:33:07.477Z,100225.69
2023-04-17T02:35:36.834Z,100235.66
2023-04-17T02:38:04.764Z,100229.53
2023-04-17T02:40:32.677Z,100217.84
2023-04-17T02:43:00.959Z,100213.69
2023-04-17T02:45:28.888Z,100216.09
2023-04-17T02:47:56.867Z,100213.41
2023-04-17T02:50:24.817Z,100211.03
2023-04-17T02:52:54.754Z,100216.00
2023-04-17T02:55:23.001Z,100212.00
2023-04-17T02:57:50.927Z,100216.69
2023-04-17T03:00:19.114Z,100210.91
2023-04-17T03:02:47.221Z,100216.38
2023-04-17T03:05:16.120Z,100233.22
2023-04-17T03:07:44.108Z,100225.59
2023-04-17T03:10:13.556Z,100220.06
2023-04-17T03:12:41.446Z,100218.38
2023-04-17T03:15:10.252Z,100221.06
2023-04-17T03:17:38.318Z,100225.31
2023-04-17T03:20:08.070Z,100227.78
2023-04-17T03:22:36.673Z,100223.97
2023-04-17T03:25:04.945Z,100237.03
2023-04-17T03:27:34.226Z,100241.72
2023-04-17T03:30:02.257Z,100241.56
2023-04-17T03:32:30.242Z,100241.47
2023-04-17T03:34:58.184Z,100228.53
2023-04-17T03:37:26.064Z,100232.28
2023-04-17T03:39:55.634Z,100227.53
2023-04-17T03:42:23.575Z,100232.63
2023-04-17T03:44:53.039Z,100231.44
2023-04-17T03:47:20.972Z,100239.44
2023-04-17T03:49:48.936Z,100216.34
2023-04-17T03:52:17.170Z,100225.00
2023-04-17T03:54:45.072Z,100221.88
2023-04-17T03:57:13.013Z,100205.56
2023-04-17T03:59:40.964Z,100199.66
2023-04-17T04:02:10.427Z,100217.56
2023-04-17T04:04:38.652Z,100221.34
2023-04-17T04:07:06.798Z,100220.88
2023-04-17T04:09:34.704Z,100227.28
2023-04-17T04:12:03.161Z,100221.25
2023-04-17T04:14:31.089Z,100212.72
2023-04-17T04:16:59.178Z,100223.34
2023-04-17T04:19:28.467Z,100228.81
2023-04-17T04:21:57.720Z,100232.28
2023-04-17T04:24:25.733Z,100249.53
2023-04-17T04:26:53.789Z,100254.09
2023-04-17T04:29:25.671Z,100251.59
2023-04-17T04:31:53.817Z,100258.53
2023-04-17T04:34:21.939Z,100259.28
2023-04-17T04:36:51.251Z,100249.06
2023-04-17T04:39:21.892Z,100244.53
2023-04-17T04:41:50.808Z,100253.56
2023-04-17T04:44:18.813Z,100231.09
2023-04-17T04:46:46.985Z,100253.56
2023-04-17T04:49:15.087Z,100264.06
2023-04-17T04:51:43.119Z,100262.84
2023-04-17T04:54:12.596Z,100257.41
2023-04-17T04:56:40.530Z,100261.28
2023-04-17T04:59:08.427Z,100255.41
2023-04-17T05:01:36.390Z,100249.56
2023-04-17T05:04:04.525Z,100243.88
2023-04-17T05:06:32.509Z,100260.06
2023-04-17T05:09:00.892Z,100267.56
2023-04-17T05:11:30.794Z,100272.13
2023-04-17T05:13:58.777Z,100277.91
2023-04-17T05:16:26.759Z,100284.88
2023-04-17T05:18:54.915Z,100287.47
2023-04-17T05:21:22.856Z,100287.06
2023-04-17T05:23:50.938Z,100282.94
2023-04-17T05:26:21.994Z,100280.94
2023-04-17T05:28:51.315Z,100268.88
2023-04-17T05:31:19.420Z,100306.53
2023-04-17T05:33:47.449Z,100277.69
2023-04-17T05:36:15.418Z,100308.63
2023-04-17T05:38:45.957Z,100299.78
2023-04-17T05:41:14.181Z,100301.97
2023-04-17T05:43:42.849Z,100276.34
2023-04-17T05:46:12.323Z,100302.91
2023-04-17T05:48:40.577Z,100292.06
2023-04-17T05:51:08.555Z,100313.59
2023-04-17T05:53:37.334Z,100327.22
2023-04-17T05:56:05.779Z,100318.28
2023-04-17T05:58:36.222Z,100323.94
2023-04-17T06:01:06.529Z,100310.22
2023-04-17T06:03:36.080Z,100323.25
2023-04-17T06:06:04.531Z,100315.38
2023-04-17T06:08:32.506Z,100306.88
2023-04-17T06:11:00.473Z,100324.50
2023-04-17T06:13:28.449Z,100328.22
2023-04-17T06:15:56.391Z,100325.09
2023-04-17T06:18:24.411Z,100335.19
2023-04-17T06:20:53.797Z,100343.31
2023-04-17T06:23:21.776Z,100341.44
2023-04-17T06:25:49.786Z,100349.75
2023-04-17T06:28:17.682Z,100342.88
2023-04-17T06:30:45.646Z,100354.84
2023-04-17T06:33:13.644Z,100328.97
2023-04-17T06:35:41.823Z,100351.97
2023-04-17T06:38:11.335Z,100296.59
2023-04-17T06:40:39.987Z,100360.81
2023-04-17T06:43:08.252Z,100346.16
2023-04-17T06:45:36.341Z,100361.56
2023-04-17T06:48:04.486Z,100363.13
2023-04-17T06:50:32.959Z,100362.59
2023-04-17T06:53:01.125Z,100367.28
2023-04-17T06:55:30.548Z,100371.06
2023-04-17T06:57:58.866Z,100358.88
2023-04-17T07:00:27.077Z,100347.28
2023-04-17T07:02:55.170Z,100386.88
2023-04-17T07:05:23.142Z,100387.78
2023-04-17T07:07:51.059Z,100383.44
2023-04-17T07:10:19.579Z,100330.75
2023-04-17T07:12:48.954Z,100376.22
2023-04-17T07:15:17.286Z,100399.00
2023-04-17T07:17:45.309Z,100399.25
2023-04-17T07:20:13.781Z,100395.25
2023-04-17T07:22:41.776Z,100386.84
2023-04-17T07:25:09.889Z,100401.22
2023-04-17T07:27:38.828Z,100398.13
2023-04-17T07:30:10.122Z,100401.94
2023-04-17T07:32:38.104Z,100400.59
2023-04-17T07:35:06.896Z,100404.88
2023-04-17T07:37:37.063Z,100399.56
2023-04-17T07:40:10.547Z,100403.81
2023-04-17T07:42:38.554Z,100404.16
2023-04-17T07:45:08.967Z,100404.66
2023-04-17T07:47:37.047Z,100401.66
2023-04-17T07:50:05.402Z,100406.22
2023-04-17T07:52:33.365Z,100405.38
2023-04-17T07:55:01.271Z,100406.94
2023-04-17T07:57:29.231Z,100409.13
2023-04-17T07:59:57.259Z,100407.50
2023-04-17T08:02:26.747Z,100408.53
2023-04-17T08:04:55.538Z,100404.97
2023-04-17T08:07:24.091Z,100400.28
2023-04-17T08:09:52.181Z,100408.72
2023-04-17T08:12:20.127Z,100405.81
2023-04-17T08:14:48.048Z,100403.31
2023-04-17T08:17:20.184Z,100416.44
2023-04-17T08:19:50.380Z,100407.50
2023-04-17T08:22:19.710Z,100415.91
2023-04-17T08:24:47.939Z,100402.59
2023-04-17T08:27:16.076Z,100409.47
2023-04-17T08:29:44.621Z,100409.78
2023-04-17T08:32:14.657Z,100416.34
2023-04-17T08:34:43.646Z,100406.41
2023-04-17T08:37:13.008Z,100412.88
2023-04-17T08:39:41.006Z,100415.81
2023-04-17T08:42:13.288Z,100410.59
2023-04-17T08:44:45.770Z,100391.25
2023-04-17T08:47:14.189Z,100422.38
2023-04-17T08:49:43.950Z,100412.47
2023-04-17T08:52:14.528Z,100412.28
2023-04-17T08:54:42.474Z,100413.31
2023-04-17T08:57:10.484Z,100420.41
2023-04-17T08:59:38.792Z,100417.03
2023-04-17T09:02:08.207Z,100414.78
2023-04-17T09:04:38.403Z,100417.06
2023-04-17T09:07:06.745Z,100407.41
2023-04-17T09:09:52.823Z,100424.56
2023-04-17T09:12:21.587Z,100413.25
2023-04-17T09:14:49.590Z,100408.72
2023-04-17T09:17:19.035Z,100412.59
2023-04-17T09:20:07.559Z,100403.09
2023-04-17T09:22:36.690Z,100406.66
2023-04-17T09:25:15.966Z,100398.84
2023-04-17T09:27:43.865Z,100403.69
2023-04-17T09:30:12.208Z,100393.63
2023-04-17T09:32:40.571Z,100392.59
2023-04-17T09:35:09.043Z,100386.44
2023-04-17T09:37:50.662Z,100394.13
2023-04-17T09:40:21.689Z,100400.69
2023-04-17T09:42:57.809Z,100401.50
2023-04-17T09:45:26.996Z,100385.81
2023-04-17T09:47:56.113Z,100387.91
2023-04-17T09:50:25.897Z,100386.47
2023-04-17T09:52:55.256Z,100396.97
2023-04-17T09:55:26.786Z,100388.81
2023-04-17T09:57:55.977Z,100388.81
2023-04-17T10:00:27.076Z,100385.19
2023-04-17T10:02:56.302Z,100383.53
2023-04-17T10:05:25.928Z,100383.84
2023-04-17T10:07:54.228Z,100378.94
2023-04-17T10:10:30.333Z,100376.88
2023-04-17T10:13:01.263Z,100376.03
2023-04-17T10:15:30.522Z,100381.25
2023-04-17T10:18:19.795Z,100368.91
2023-04-17T10:20:48.619Z,100365.63
2023-04-17T10:23:31.621Z,100379.66
2023-04-17T10:26:42.015Z,100376.97
2023-04-17T10:29:12.812Z,100380.41
2023-04-17T10:32:25.960Z,100379.88
2023-04-17T10:34:55.318Z,100368.69
2023-04-17T10:37:25.426Z,100375.75
2023-04-17T10:39:56.673Z,100371.66
2023-04-17T10:42:25.896Z,100373.38
2023-04-17T10:44:59.896Z,100379.13
2023-04-17T10:47:32.702Z,100377.91
2023-04-17T10:50:02.420Z,100377.00
2023-04-17T10:52:39.898Z,100380.94
2023-04-17T10:55:09.744Z,100389.78
2023-04-17T10:57:56.956Z,100388.72
2023-04-17T11:00:35.156Z,100397.63
2023-04-17T11:03:04.794Z,100384.53
2023-04-17T11:05:33.306Z,100395.41
2023-04-17T11:08:01.392Z,100387.38
2023-04-17T11:10:29.523Z,100395.72
2023-04-17T11:12:57.532Z,100385.44
2023-04-17T11:15:29.420Z,100390.16
2023-04-17T11:18:00.370Z,100385.78
2023-04-17T11:20:31.248Z,100383.69
2023-04-17T11:23:02.276Z,100371.19
2023-04-17T11:25:33.873Z,100395.06
2023-04-17T11:28:03.527Z,100391.66
2023-04-17T11:30:33.498Z,100376.72
2023-04-17T11:33:04.501Z,100370.31
2023-04-17T11:35:34.118Z,100378.34
2023-04-17T11:38:17.898Z,100372.84
2023-04-17T11:40:52.264Z,100379.63
2023-04-17T11:43:21.197Z,100378.06
2023-04-17T11:45:52.085Z,100377.91
2023-04-17T11:48:24.115Z,100387.66
2023-04-17T11:50:56.531Z,100372.75
2023-04-17T11:53:24.849Z,100392.78
2023-04-17T11:56:18.188Z,100374.94
2023-04-17T11:58:50.957Z,100382.50
2023-04-17T12:01:20.169Z,100385.19
2023-04-17T12:03:49.898Z,100384.41
2023-04-17T12:06:18.359Z,100375.53
2023-04-17T12:08:50.234Z,100382.50
2023-04-17T12:11:24.067Z,100381.22
2023-04-17T12:13:52.101Z,100377.59
2023-04-17T12:16:20.351Z,100383.75
2023-04-17T12:18:49.767Z,100387.06
2023-04-17T12:21:18.082Z,100387.69
2023-04-17T12:23:45.995Z,100382.09
2023-04-17T12:26:14.390Z,100378.66
2023-04-17T12:28:42.366Z,100383.41
2023-04-17T12:31:10.512Z,100387.16
2023-04-17T12:33:38.633Z,100386.94
2023-04-17T12:36:09.011Z,100385.16
2023-04-17T12:38:37.197Z,100387.78
2023-04-17T12:41:05.246Z,100384.25
2023-04-17T12:43:33.703Z,100385.91
2023-04-17T12:46:02.327Z,100372.59
2023-04-17T12:48:32.718Z,100381.22
2023-04-17T12:51:01.110Z,100382.91
2023-04-17T12:53:30.620Z,100368.50
2023-04-17T12:55:58.767Z,100383.31
2023-04-17T12:58:26.961Z,100364.16
2023-04-17T13:00:55.004Z,100397.06
2023-04-17T13:03:23.172Z,100388.09
2023-04-17T13:05:53.279Z,100387.06
2023-04-17T13:08:21.772Z,100372.88
2023-04-17T13:10:51.109Z,100394.44
2023-04-17T13:13:19.054Z,100397.47
2023-04-17T13:15:47.570Z,100404.56
2023-04-17T13:18:15.882Z,100393.38
2023-04-17T13:20:43.910Z,100406.97
2023-04-17T13:23:12.094Z,100395.31
2023-04-17T13:25:40.041Z,100390.13
2023-04-17T13:28:09.427Z,100410.69
2023-04-17T13:30:38.037Z,100404.91
2023-04-17T13:33:06.234Z,100401.69
2023-04-17T13:35:34.168Z,100400.19
2023-04-17T13:38:03.350Z,100396.44
2023-04-17T13:40:31.662Z,100392.72
2023-04-17T13:43:00.447Z,100396.34
2023-04-17T13:45:29.872Z,100386.66
2023-04-17T13:47:57.889Z,100382.41
2023-04-17T13:50:25.830Z,100389.91
2023-04-17T13:52:53.840Z,100391.78
2023-04-17T13:55:21.826Z,100397.63
2023-04-17T13:57:51.118Z,100394.94
2023-04-17T14:00:20.933Z,100392.53
2023-04-17T14:02:50.487Z,100391.56
2023-04-17T14:05:18.589Z,100393.88
2023-04-17T14:07:46.535Z,100390.50
2023-04-17T14:10:15.050Z,100382.41
2023-04-17T14:12:43.950Z,100395.09
2023-04-17T14:15:13.229Z,100402.81
2023-04-17T14:17:43.368Z,100386.78
2023-04-17T14:20:15.211Z,100386.13
2023-04-17T14:22:43.689Z,100385.31
2023-04-17T14:25:11.834Z,100396.88
2023-04-17T14:27:39.963Z,100400.66
2023-04-17T14:30:10.127Z,100390.38
2023-04-17T14:32:38.594Z,100383.06
2023-04-17T14:35:07.556Z,100377.66
2023-04-17T14:37:37.021Z,100391.00
2023-04-17T14:40:05.830Z,100392.44
2023-04-17T14:42:40.667Z,100389.28
2023-04-17T14:45:19.100Z,100387.66
2023-04-17T14:47:47.080Z,100380.50
2023-04-17T14:50:15.074Z,100377.06
2023-04-17T14:52:44.390Z,100376.59
2023-04-17T14:55:13.349Z,100381.81
2023-04-17T14:57:41.438Z,100373.22
2023-04-17T15:00:10.304Z,100374.66
2023-04-17T15:02:39.513Z,100369.56
2023-04-17T15:05:08.652Z,100377.88
2023-04-17T15:07:37.079Z,100373.53
2023-04-17T15:10:07.286Z,100365.19
2023-04-17T15:12:35.223Z,100362.41
2023-04-17T15:15:03.455Z,100357.50
2023-04-17T15:17:31.488Z,100358.75
2023-04-17T15:20:00.806Z,100357.81
2023-04-17T15:22:28.830Z,100356.88
2023-04-17T15:24:56.756Z,100363.28
2023-04-17T15:27:26.139Z,100361.94
2023-04-17T15:29:54.088Z,100360.91
2023-04-17T15:32:22.096Z,100364.44
2023-04-17T15:34:50.075Z,100366.38
2023-04-17T15:37:17.999Z,100353.81
2023-04-17T15:39:46.199Z,100361.66
2023-04-17T15:42:14.130Z,100358.91
2023-04-17T15:44:43.437Z,100364.41
2023-04-17T15:47:11.400Z,100355.97
2023-04-17T15:49:39.323Z,100356.09
2023-04-17T15:52:07.737Z,100357.88
2023-04-17T15:54:35.800Z,100350.34
2023-04-17T15:57:03.749Z,100349.50
2023-04-17T15:59:33.090Z,100350.47
2023-04-17T16:02:02.851Z,100359.69
2023-04-17T16:04:31.005Z,100350.13
2023-04-17T16:06:59.137Z,100358.28
2023-04-17T16:09:27.549Z,100362.50
2023-04-17T16:11:56.651Z,100358.38
2023-04-17T16:14:24.653Z,100359.13
2023-04-17T16:16:52.930Z,100364.00
2023-04-17T16:19:22.228Z,100357.38
2023-04-17T16:21:50.215Z,100353.50
2023-04-17T16:24:18.159Z,100351.66
2023-04-17T16:26:46.060Z,100369.19
2023-04-17T16:29:14.208Z,100368.44
2023-04-17T16:31:42.446Z,100372.09
2023-04-17T16:34:12.718Z,100371.53
2023-04-17T16:36:45.153Z,100373.63
2023-04-17T16:39:13.914Z,100377.38
2023-04-17T16:41:42.383Z,100371.38
2023-04-17T16:44:10.463Z,100376.97
2023-04-17T16:49:11.602Z,100382.53
2023-04-17T16:51:41.226Z,100384.13
2023-04-17T16:54:09.297Z,100383.84
2023-04-17T16:56:37.363Z,100371.19
2023-04-17T16:59:05.833Z,100385.69
2023-04-17T17:01:33.905Z,100380.59
2023-04-17T17:04:01.993Z,100380.31
2023-04-17T17:06:30.236Z,100385.50
2023-04-17T17:08:59.781Z,100389.22
2023-04-17T17:11:27.865Z,100375.78
2023-04-17T17:13:56.334Z,100387.53
2023-04-17T17:16:24.283Z,100386.06
2023-04-17T17:18:52.233Z,100382.81
2023-04-17T17:21:20.219Z,100370.13
2023-04-17T17:23:49.222Z,100385.31
2023-04-17T17:26:18.535Z,100371.97
2023-04-17T17:28:51.042Z,100368.16
2023-04-17T17:31:19.495Z,100372.88
2023-04-17T17:33:50.156Z,100379.84
2023-04-17T17:36:18.471Z,100386.72
2023-04-17T17:38:46.515Z,100385.97
2023-04-17T17:41:14.426Z,100383.25
2023-04-17T17:43:43.748Z,100402.19
2023-04-17T17:46:11.657Z,100400.44
2023-04-17T17:48:39.691Z,100404.88
2023-04-17T17:51:07.648Z,100397.38
2023-04-17T17:53:35.574Z,100399.50
2023-04-17T17:56:03.759Z,100401.56
2023-04-17T17:58:31.703Z,100411.66
2023-04-17T18:01:01.060Z,100416.34
2023-04-17T18:03:29.119Z,100418.16
2023-04-17T18:05:57.087Z,100420.75
2023-04-17T18:08:24.983Z,100423.03
2023-04-17T18:10:52.947Z,100430.97
2023-04-17T18:13:20.890Z,100430.66
2023-04-17T18:15:48.799Z,100422.41
2023-04-17T18:18:18.162Z,100423.78
2023-04-17T18:20:46.268Z,100429.47
2023-04-17T18:23:14.394Z,100425.09
2023-04-17T18:25:42.325Z,100423.16
2023-04-17T18:28:10.233Z,100442.00
2023-04-17T18:30:38.268Z,100437.25
2023-04-17T18:33:06.822Z,100452.66
2023-04-17T18:35:36.429Z,100443.09
2023-04-17T18:38:04.830Z,100445.97
2023-04-17T18:40:33.428Z,100448.38
2023-04-17T18:43:01.932Z,100440.03
2023-04-17T18:45:31.505Z,100450.44
2023-04-17T18:47:59.743Z,100446.34
2023-04-17T18:50:27.994Z,100456.34
2023-04-17T18:52:57.840Z,100445.03
2023-04-17T18:55:25.835Z,100444.28
2023-04-17T18:57:53.977Z,100396.28
2023-04-17T19:00:22.031Z,100444.28
2023-04-17T19:02:50.106Z,100451.91
2023-04-17T19:05:20.451Z,100442.66
2023-04-17T19:07:48.822Z,100432.69
2023-04-17T19:10:18.467Z,100430.56
2023-04-17T19:12:46.868Z,100433.41
2023-04-17T19:15:17.559Z,100433.75
2023-04-17T19:17:45.680Z,100438.25
2023-04-17T19:20:14.690Z,100450.03
2023-04-17T19:22:42.687Z,100443.06
2023-04-17T19:25:11.194Z,100445.13
2023-04-17T19:27:40.605Z,100441.88
2023-04-17T19:30:09.923Z,100444.38
2023-04-17T19:32:38.015Z,100444.63
2023-04-17T19:35:07.418Z,100437.97
2023-04-17T19:37:35.498Z,100447.22
2023-04-17T19:40:08.552Z,100441.59
2023-04-17T19:42:43.930Z,100442.25
2023-04-17T19:45:13.142Z,100444.38
2023-04-17T19:47:41.172Z,100443.47
2023-04-17T19:50:10.744Z,100449.47
2023-04-17T19:52:40.207Z,100452.34
2023-04-17T19:55:09.411Z,100440.38
2023-04-17T19:57:39.171Z,100449.09
2023-04-17T20:00:10.920Z,100433.50
2023-04-17T20:02:39.607Z,100441.50
2023-04-17T20:05:08.600Z,100453.16
2023-04-17T20:07:37.488Z,100456.84
2023-04-17T20:10:06.118Z,100438.50
2023-04-17T20:12:34.456Z,100431.38
2023-04-17T20:15:02.522Z,100451.66
2023-04-17T20:17:31.938Z,100414.56
2023-04-17T20:19:59.955Z,100447.41
2023-04-17T20:22:27.918Z,100446.03
2023-04-17T20:24:56.023Z,100457.19
2023-04-17T20:27:24.082Z,100456.06
2023-04-17T20:29:52.210Z,100451.19
2023-04-17T20:32:20.501Z,100461.06
2023-04-17T20:34:50.014Z,100459.78
2023-04-17T20:37:18.175Z,100450.69
2023-04-17T20:39:46.165Z,100431.69
2023-04-17T20:42:14.224Z,100448.66
2023-04-17T20:44:42.628Z,100438.09
2023-04-17T20:47:10.716Z,100435.16
2023-04-17T20:49:38.792Z,100433.09
2023-04-17T20:52:08.298Z,100438.84
2023-04-17T20:54:36.356Z,100441.03
2023-04-17T20:57:04.638Z,100428.75
2023-04-17T20:59:33.490Z,100424.34
2023-04-17T21:02:02.053Z,100425.94
2023-04-17T21:04:30.111Z,100416.75
2023-04-17T21:06:58.111Z,100428.69
2023-04-17T21:09:28.027Z,100415.25
2023-04-17T21:11:56.422Z,100421.41
2023-04-17T21:14:24.341Z,100431.94
2023-04-17T21:16:54.927Z,100428.44
2023-04-17T21:19:24.302Z,100433.31
2023-04-17T21:21:53.556Z,100424.03
2023-04-17T21:24:21.579Z,100431.38
2023-04-17T21:26:50.894Z,100434.69
2023-04-17T21:29:18.788Z,100434.47
2023-04-17T21:31:47.002Z,100438.59
2023-04-17T21:34:15.198Z,100424.50
2023-04-17T21:36:43.223Z,100427.59
2023-04-17T21:39:11.379Z,100419.34
2023-04-17T21:41:39.410Z,100418.44
2023-04-17T21:44:10.634Z,100444.22
2023-04-17T21:46:39.610Z,100435.44
2023-04-17T21:49:07.607Z,100443.69
2023-04-17T21:51:35.973Z,100444.16
2023-04-17T21:54:04.275Z,100451.06
2023-04-17T21:56:32.613Z,100447.50
2023-04-17T21:59:00.660Z,100442.38
2023-04-17T22:01:30.443Z,100441.06
2023-04-17T22:03:58.503Z,100424.38
2023-04-17T22:06:26.593Z,100432.69
2023-04-17T22:08:54.571Z,100434.53
2023-04-17T22:11:23.118Z,100446.13
2023-04-17T22:13:51.021Z,100434.53
2023-04-17T22:16:19.067Z,100448.84
2023-04-17T22:18:48.558Z,100438.88
2023-04-17T22:21:16.465Z,100446.56
2023-04-17T22:23:44.354Z,100448.50
2023-04-17T22:26:12.469Z,100447.91
2023-04-17T22:28:40.476Z,100439.66
2023-04-17T22:31:08.528Z,100448.69
2023-04-17T22:33:36.901Z,100435.41
2023-04-17T22:36:06.798Z,100442.41
2023-04-17T22:38:34.798Z,100441.22
2023-04-17T22:41:02.771Z,100441.38
2023-04-17T22:43:30.717Z,100451.19
2023-04-17T22:45:58.754Z,100440.38
2023-04-17T22:48:27.932Z,100441.25
2023-04-17T22:50:56.809Z,100431.19
2023-04-17T22:53:26.330Z,100446.41
2023-04-17T22:56:03.927Z,100434.38
2023-04-17T22:58:32.634Z,100431.13
2023-04-17T23:01:00.656Z,100419.28
2023-04-17T23:03:28.699Z,100419.41
2023-04-17T23:05:56.955Z,100420.47
2023-04-17T23:08:26.308Z,100417.69
2023-04-17T23:11:00.719Z,100408.50
2023-04-17T23:13:29.193Z,100414.03
2023-04-17T23:15:57.294Z,100409.47
2023-04-17T23:18:26.462Z,100403.53
2023-04-17T23:20:54.375Z,100411.22
2023-04-17T23:23:22.315Z,100393.59
2023-04-17T23:25:52.170Z,100401.44
2023-04-17T23:28:20.094Z,100406.06
2023-04-17T23:30:48.015Z,100411.03
2023-04-17T23:33:15.941Z,100400.44
2023-04-17T23:35:43.838Z,100410.13
2023-04-17T23:38:11.751Z,100417.47
2023-04-17T23:40:39.717Z,100418.00
2023-04-17T23:43:09.012Z,100411.16
2023-04-17T23:45:36.906Z,100420.47
2023-04-17T23:48:05.018Z,100417.72
2023-04-17T23:50:33.043Z,100414.19
2023-04-17T23:53:01.020Z,100418.50
2023-04-17T23:55:29.009Z,100412.22
2023-04-17T23:57:58.440Z,100420.38
